Time;durP1;ratioP1;P1;durP2;ratioP2;P2;SDS_P1;SDS_P2;PMS_P1;PMS_P2;Temp;Humidity;BMP_temperature;BMP_pressure;BME280_temperature;BME280_humidity;BME280_pressure;Samples;Min_cycle;Max_cycle;Signal;HPM_P1;HPM_P2
2022/04/12 00:01:33;;;;;;;1.23;1.03;;;23.00;50.40;;;;;;5075507;28;20440;-78
2022/04/12 00:04:01;;;;;;;1.20;1.10;;;23.00;50.40;;;;;;5075537;28;20445;-79
2022/04/12 00:06:29;;;;;;;1.10;1.00;;;23.00;50.40;;;;;;5075319;28;20487;-79
2022/04/12 00:08:56;;;;;;;1.00;0.90;;;23.00;50.40;;;;;;5075465;28;20437;-79
2022/04/12 00:11:23;;;;;;;1.17;1.07;;;23.00;50.50;;;;;;5075392;28;20437;-79
2022/04/12 00:13:49;;;;;;;1.20;0.90;;;23.00;50.40;;;;;;5075211;28;20443;-85
2022/04/12 00:16:16;;;;;;;1.30;1.20;;;23.00;50.40;;;;;;5074981;28;20448;-79
2022/04/12 00:21:37;;;;;;;1.30;1.20;;;22.90;50.40;;;;;;5016063;28;20429;-85
2022/04/12 00:24:06;;;;;;;1.10;1.00;;;22.90;50.50;;;;;;5074821;28;20457;-79
2022/04/12 00:26:33;;;;;;;1.10;1.00;;;22.90;50.50;;;;;;5075268;28;20484;-79
2022/04/12 00:29:00;;;;;;;1.23;1.13;;;22.90;50.40;;;;;;5075206;28;20432;-79
2022/04/12 00:31:27;;;;;;;2.90;0.93;;;22.90;50.40;;;;;;5075005;28;20440;-83
2022/04/12 00:33:53;;;;;;;1.30;1.20;;;22.90;50.40;;;;;;5074765;28;20444;-79
2022/04/12 00:36:20;;;;;;;1.00;0.90;;;22.90;50.30;;;;;;5074817;28;20448;-79
2022/04/12 00:38:49;;;;;;;1.27;1.17;;;22.90;50.40;;;;;;5074641;28;20803;-82
2022/04/12 00:41:15;;;;;;;1.47;1.10;;;23.00;50.50;;;;;;5074711;28;20947;-85
2022/04/12 00:43:43;;;;;;;1.50;1.00;;;22.90;50.40;;;;;;5074795;28;20474;-82
2022/04/12 00:46:10;;;;;;;1.00;0.90;;;22.90;50.40;;;;;;5074388;28;20440;-79
2022/04/12 00:48:37;;;;;;;0.90;0.80;;;22.90;50.40;;;;;;5074522;28;20437;-83
2022/04/12 00:51:04;;;;;;;1.10;0.90;;;22.90;50.30;;;;;;5074535;28;20461;-86
2022/04/12 00:53:31;;;;;;;1.23;1.13;;;22.90;50.40;;;;;;5074535;28;20444;-87
2022/04/12 00:55:59;;;;;;;1.00;0.90;;;22.90;50.40;;;;;;5074390;28;20445;-79
2022/04/12 00:58:26;;;;;;;1.43;1.33;;;22.90;50.40;;;;;;5074778;28;20436;-78
2022/04/12 01:00:53;;;;;;;1.23;1.13;;;22.90;50.40;;;;;;5074218;28;20468;-79
2022/04/12 01:03:20;;;;;;;1.00;0.90;;;22.90;50.40;;;;;;5074315;28;20449;-80
2022/04/12 01:05:49;;;;;;;1.03;0.93;;;22.90;50.40;;;;;;5074411;28;20447;-79
2022/04/12 01:08:17;;;;;;;1.20;1.10;;;22.90;50.40;;;;;;5074213;28;20516;-79
2022/04/12 01:10:45;;;;;;;1.30;1.00;;;22.90;50.30;;;;;;5074269;28;20460;-87
2022/04/12 01:13:14;;;;;;;1.13;1.03;;;22.90;50.40;;;;;;5074377;28;20839;-79
2022/04/12 01:15:42;;;;;;;1.30;1.20;;;22.90;50.30;;;;;;5074109;28;20452;-83
2022/04/12 01:18:09;;;;;;;1.20;1.10;;;22.90;50.40;;;;;;5074227;28;20528;-79
2022/04/12 01:20:36;;;;;;;1.53;1.03;;;22.90;50.30;;;;;;5073948;28;20460;-82
2022/04/12 01:23:09;;;;;;;1.30;1.00;;;22.90;50.30;;;;;;5073965;28;20444;-80
2022/04/12 01:25:38;;;;;;;1.10;1.00;;;22.90;50.20;;;;;;5073790;28;20522;-79
2022/04/12 01:28:05;;;;;;;1.33;1.07;;;22.90;50.20;;;;;;5073779;28;20485;-78
2022/04/12 01:30:32;;;;;;;1.10;1.00;;;22.90;50.30;;;;;;5073674;28;20448;-79
2022/04/12 01:32:59;;;;;;;1.03;0.93;;;22.90;50.30;;;;;;5073723;28;20444;-83
2022/04/12 01:35:25;;;;;;;1.87;1.13;;;22.90;50.30;;;;;;5073729;28;20437;-82
2022/04/12 01:37:53;;;;;;;1.17;1.07;;;22.90;50.30;;;;;;5073724;28;20448;-87
2022/04/12 01:40:20;;;;;;;1.37;1.20;;;22.80;50.20;;;;;;5073568;28;20437;-87
2022/04/12 01:42:48;;;;;;;1.40;1.03;;;22.80;50.10;;;;;;5073032;28;20448;-80
2022/04/12 01:45:15;;;;;;;1.23;1.13;;;22.90;50.20;;;;;;5073454;28;20456;-87
2022/04/12 01:47:42;;;;;;;1.00;0.80;;;22.80;50.10;;;;;;5073323;28;20491;-81
2022/04/12 01:50:09;;;;;;;1.10;0.90;;;22.90;50.30;;;;;;5073299;28;20460;-79
2022/04/12 01:52:37;;;;;;;1.10;1.00;;;22.90;50.10;;;;;;5073558;28;20776;-83
2022/04/12 01:55:05;;;;;;;1.03;0.93;;;22.80;50.00;;;;;;5073898;28;20447;-86
2022/04/12 01:57:31;;;;;;;1.10;1.00;;;22.80;50.10;;;;;;5073279;28;20456;-85
2022/04/12 02:00:00;;;;;;;1.00;0.80;;;22.80;50.10;;;;;;5073344;28;20440;-86
2022/04/12 02:02:26;;;;;;;1.10;1.00;;;22.80;50.10;;;;;;5073304;28;20791;-79
2022/04/12 02:04:53;;;;;;;1.33;1.23;;;22.80;50.70;;;;;;5073422;28;20436;-78
2022/04/12 02:07:20;;;;;;;1.00;0.90;;;22.90;50.20;;;;;;5073410;28;20836;-87
2022/04/12 02:09:47;;;;;;;1.17;1.00;;;22.80;50.10;;;;;;5073171;28;20437;-79
2022/04/12 02:12:14;;;;;;;1.50;1.20;;;22.80;50.20;;;;;;5073088;28;20466;-79
2022/04/12 02:14:40;;;;;;;1.30;1.13;;;22.90;50.30;;;;;;5073204;28;20452;-86
2022/04/12 02:17:09;;;;;;;1.10;1.00;;;22.80;50.20;;;;;;5073487;28;20444;-84
2022/04/12 02:19:35;;;;;;;1.20;1.10;;;22.80;50.20;;;;;;5073089;28;20456;-79
2022/04/12 02:22:02;;;;;;;1.03;0.93;;;22.80;50.10;;;;;;5073126;28;20448;-79
2022/04/12 02:24:30;;;;;;;1.40;1.30;;;22.80;50.10;;;;;;5072796;28;20479;-79
2022/04/12 02:26:57;;;;;;;1.30;1.20;;;22.80;50.20;;;;;;5072987;28;20508;-79
2022/04/12 02:29:24;;;;;;;1.30;1.20;;;22.90;50.20;;;;;;5073291;28;20943;-79
2022/04/12 02:31:50;;;;;;;1.10;1.00;;;22.80;50.10;;;;;;5073129;28;20443;-78
2022/04/12 02:34:18;;;;;;;1.00;0.90;;;22.80;50.20;;;;;;5072948;28;20469;-79
2022/04/12 02:36:47;;;;;;;1.10;1.00;;;22.80;50.20;;;;;;5072972;28;20448;-78
2022/04/12 02:39:14;;;;;;;1.20;1.10;;;22.80;50.10;;;;;;5072827;28;20527;-79
2022/04/12 02:41:40;;;;;;;1.10;1.00;;;22.80;50.10;;;;;;5073050;28;20437;-85
2022/04/12 02:44:07;;;;;;;2.00;1.07;;;22.80;50.10;;;;;;5073073;28;20451;-79
2022/04/12 02:46:34;;;;;;;1.20;1.10;;;22.80;50.10;;;;;;5072722;28;20444;-78
2022/04/12 02:49:01;;;;;;;1.10;1.00;;;22.80;50.10;;;;;;5072702;28;20445;-78
2022/04/12 02:51:29;;;;;;;1.10;0.90;;;22.80;50.10;;;;;;5072946;28;20451;-79
2022/04/12 02:53:56;;;;;;;1.90;1.00;;;22.80;50.00;;;;;;5072863;28;20528;-86
2022/04/12 02:56:22;;;;;;;1.10;1.00;;;22.80;50.70;;;;;;5075976;28;20440;-80
2022/04/12 02:58:49;;;;;;;1.13;1.03;;;22.80;50.10;;;;;;5076692;28;20448;-79
2022/04/12 03:01:16;;;;;;;1.20;1.10;;;22.80;50.10;;;;;;5076500;28;20954;-78
2022/04/12 03:03:43;;;;;;;1.10;1.00;;;22.80;50.10;;;;;;5076742;28;20460;-79
2022/04/12 03:06:09;;;;;;;1.27;1.17;;;22.70;50.10;;;;;;5076641;28;20472;-79
2022/04/12 03:08:38;;;;;;;1.10;1.00;;;22.70;50.10;;;;;;5076438;28;20841;-85
2022/04/12 03:11:04;;;;;;;1.13;1.03;;;22.90;50.20;;;;;;5076555;28;20916;-86
2022/04/12 03:13:31;;;;;;;1.10;1.00;;;22.70;50.10;;;;;;5076355;28;20437;-79
2022/04/12 03:15:58;;;;;;;1.20;1.10;;;22.70;50.10;;;;;;5076265;28;20444;-78
2022/04/12 03:18:25;;;;;;;1.03;0.93;;;22.70;50.10;;;;;;5076341;28;20443;-86
2022/04/12 03:20:51;;;;;;;1.37;1.27;;;22.70;50.10;;;;;;5076159;28;20460;-79
2022/04/12 03:23:18;;;;;;;1.20;1.10;;;22.70;50.10;;;;;;5076295;28;20447;-78
2022/04/12 03:25:46;;;;;;;1.23;1.13;;;22.70;50.10;;;;;;5076058;28;20566;-78
2022/04/12 03:28:14;;;;;;;1.30;1.10;;;22.70;50.10;;;;;;5075852;28;20484;-86
2022/04/12 03:30:40;;;;;;;1.63;1.33;;;22.70;50.10;;;;;;5075959;28;20441;-78
2022/04/12 03:33:07;;;;;;;1.27;1.17;;;22.70;50.10;;;;;;5075861;28;20437;-85
2022/04/12 03:35:34;;;;;;;1.00;0.90;;;22.70;50.10;;;;;;5075935;28;20445;-78
2022/04/12 03:38:01;;;;;;;1.00;0.90;;;22.70;50.10;;;;;;5075704;28;20459;-80
2022/04/12 03:40:31;;;;;;;1.10;1.00;;;22.70;50.10;;;;;;5075885;28;20539;-80
2022/04/12 03:43:01;;;;;;;1.43;1.33;;;22.70;50.10;;;;;;5075685;28;20452;-81
2022/04/12 03:45:28;;;;;;;1.27;1.17;;;22.70;50.10;;;;;;5075717;28;20506;-85
2022/04/12 03:47:55;;;;;;;1.30;1.20;;;22.70;50.10;;;;;;5075503;28;20484;-79
2022/04/12 03:50:22;;;;;;;1.10;1.00;;;22.80;50.10;;;;;;5075451;28;20464;-79
2022/04/12 03:52:48;;;;;;;1.57;1.30;;;22.70;50.00;;;;;;5075334;28;20535;-86
2022/04/12 03:55:15;;;;;;;1.40;1.30;;;22.70;50.00;;;;;;5075420;28;20441;-86
2022/04/12 03:57:42;;;;;;;1.10;1.00;;;22.70;50.00;;;;;;5075463;28;20441;-81
2022/04/12 04:00:12;;;;;;;1.13;1.03;;;22.70;50.10;;;;;;5075563;28;20436;-79
2022/04/12 04:02:39;;;;;;;1.30;1.20;;;22.70;50.10;;;;;;5075865;28;20792;-86
2022/04/12 04:05:07;;;;;;;1.23;1.13;;;22.80;50.10;;;;;;5075543;28;20441;-79
2022/04/12 04:07:33;;;;;;;1.03;0.90;;;22.70;50.10;;;;;;5075196;28;20974;-79
2022/04/12 04:10:00;;;;;;;2.70;1.30;;;22.70;50.00;;;;;;5075496;28;20444;-84
2022/04/12 04:12:28;;;;;;;1.20;1.00;;;22.80;50.20;;;;;;5075273;28;20441;-78
2022/04/12 04:14:55;;;;;;;1.37;1.03;;;22.70;50.10;;;;;;5075376;28;20441;-78
2022/04/12 04:17:23;;;;;;;1.10;1.00;;;22.70;50.00;;;;;;5075130;28;20476;-86
2022/04/12 04:19:50;;;;;;;1.30;1.20;;;22.60;50.00;;;;;;5075006;28;20983;-86
2022/04/12 04:22:17;;;;;;;1.10;1.00;;;22.60;50.00;;;;;;5074970;28;20437;-85
2022/04/12 04:24:44;;;;;;;1.23;1.13;;;22.70;50.10;;;;;;5075047;28;20480;-80
2022/04/12 04:27:11;;;;;;;1.37;1.27;;;22.60;50.00;;;;;;5075350;28;20452;-78
2022/04/12 04:29:38;;;;;;;1.40;1.30;;;22.70;50.10;;;;;;5074950;28;20449;-79
2022/04/12 04:32:05;;;;;;;2.23;1.50;;;22.60;50.10;;;;;;5074130;28;20803;-84
2022/04/12 04:34:33;;;;;;;1.33;1.10;;;22.70;49.80;;;;;;5073256;28;20444;-85
2022/04/12 04:37:00;;;;;;;2.13;1.20;;;22.70;49.70;;;;;;5073926;28;20436;-78
2022/04/12 04:39:27;;;;;;;1.10;1.00;;;22.60;50.10;;;;;;5073673;28;20440;-81
2022/04/12 04:41:54;;;;;;;1.40;0.90;;;22.60;50.20;;;;;;5073235;28;20954;-84
2022/04/12 04:44:20;;;;;;;1.17;1.07;;;22.60;50.40;;;;;;5073247;28;20433;-81
2022/04/12 04:46:47;;;;;;;1.53;1.30;;;22.60;50.30;;;;;;5073762;28;20795;-85
2022/04/12 04:49:14;;;;;;;1.33;1.20;;;22.60;50.40;;;;;;5073346;28;20484;-86
2022/04/12 04:51:42;;;;;;;1.23;1.13;;;22.60;50.60;;;;;;5072984;28;20464;-78
2022/04/12 04:54:09;;;;;;;1.20;1.10;;;22.60;50.60;;;;;;5073342;28;20459;-78
2022/04/12 04:56:35;;;;;;;2.00;1.10;;;22.60;50.60;;;;;;5072446;28;20441;-78
2022/04/12 04:59:02;;;;;;;1.60;1.50;;;22.60;50.50;;;;;;5072391;28;20469;-77
2022/04/12 05:01:29;;;;;;;1.77;1.30;;;22.60;50.60;;;;;;5070364;28;20441;-77
2022/04/12 05:03:56;;;;;;;1.27;1.17;;;22.60;50.60;;;;;;5073203;28;20437;-77
2022/04/12 05:06:23;;;;;;;1.40;1.30;;;22.60;50.70;;;;;;5073704;28;20454;-83
2022/04/12 05:08:51;;;;;;;6.13;1.47;;;22.60;50.60;;;;;;5072981;28;20477;-85
2022/04/12 05:11:18;;;;;;;3.70;1.30;;;22.60;50.20;;;;;;5071473;28;20452;-85
2022/04/12 05:13:45;;;;;;;1.73;1.13;;;22.60;50.50;;;;;;5071964;28;20502;-78
2022/04/12 05:16:11;;;;;;;1.23;1.13;;;22.60;50.90;;;;;;5072985;28;20535;-87
2022/04/12 05:18:38;;;;;;;1.10;0.90;;;22.60;51.50;;;;;;5072512;28;20445;-87
2022/04/12 05:21:05;;;;;;;1.83;1.00;;;22.60;50.60;;;;;;5073376;28;20818;-87
2022/04/12 05:23:32;;;;;;;1.70;1.30;;;22.60;50.90;;;;;;5073223;28;20463;-78
2022/04/12 05:26:00;;;;;;;2.13;1.30;;;22.60;51.20;;;;;;5072816;28;21006;-78
2022/04/12 05:28:27;;;;;;;1.50;1.30;;;22.70;51.20;;;;;;5072768;28;20484;-78
2022/04/12 05:30:54;;;;;;;1.20;1.10;;;22.60;51.30;;;;;;5072614;28;20444;-77
2022/04/12 05:33:23;;;;;;;1.60;1.40;;;22.60;51.40;;;;;;5073126;28;20448;-76
2022/04/12 05:35:50;;;;;;;1.40;1.10;;;22.60;51.20;;;;;;5072888;28;20441;-80
2022/04/12 05:38:21;;;;;;;1.60;1.17;;;22.60;51.10;;;;;;5075065;28;20447;-79
2022/04/12 05:40:49;;;;;;;1.40;1.30;;;22.60;51.20;;;;;;5072720;28;20441;-77
2022/04/12 05:43:17;;;;;;;1.67;1.57;;;22.60;51.20;;;;;;5072503;28;21017;-77
2022/04/12 05:45:44;;;;;;;1.40;1.30;;;22.60;51.20;;;;;;5072090;28;20444;-86
2022/04/12 05:48:10;;;;;;;1.50;1.20;;;22.60;51.10;;;;;;5073242;28;21066;-77
2022/04/12 05:50:37;;;;;;;1.30;1.20;;;22.70;50.60;;;;;;5072345;28;20468;-77
2022/04/12 05:53:04;;;;;;;1.33;1.13;;;22.60;51.00;;;;;;5073566;28;20444;-81
2022/04/12 05:55:31;;;;;;;1.40;1.30;;;22.60;50.90;;;;;;5073391;28;20433;-78
2022/04/12 05:58:00;;;;;;;1.67;1.57;;;22.60;51.10;;;;;;5072759;28;20455;-77
2022/04/12 06:00:29;;;;;;;1.30;1.20;;;22.70;51.20;;;;;;5073632;28;20506;-77
2022/04/12 06:02:56;;;;;;;1.10;1.00;;;22.60;51.20;;;;;;5073521;28;20441;-78
2022/04/12 06:05:24;;;;;;;2.07;1.10;;;22.70;51.20;;;;;;5073348;28;20445;-77
2022/04/12 06:07:52;;;;;;;3.30;1.40;;;22.70;51.20;;;;;;5073277;28;20440;-86
2022/04/12 06:10:21;;;;;;;1.60;1.50;;;22.70;51.20;;;;;;5073337;28;20465;-77
2022/04/12 06:12:49;;;;;;;1.30;1.10;;;22.70;51.30;;;;;;5073271;28;20444;-77
2022/04/12 06:15:17;;;;;;;1.30;1.20;;;22.70;51.30;;;;;;5073184;28;20476;-78
2022/04/12 06:17:45;;;;;;;2.20;1.37;;;22.70;51.60;;;;;;5073330;28;20445;-80
2022/04/12 06:20:14;;;;;;;1.10;1.00;;;22.70;51.20;;;;;;5071022;28;20838;-92
2022/04/12 06:22:42;;;;;;;4.10;1.10;;;22.60;51.00;;;;;;5072706;28;20444;-89
2022/04/12 06:25:10;;;;;;;1.40;1.30;;;22.60;51.10;;;;;;5060835;28;20477;-79
2022/04/12 06:27:40;;;;;;;1.50;1.40;;;22.70;51.30;;;;;;5053228;28;20445;-87
2022/04/12 06:30:09;;;;;;;1.40;1.23;;;22.70;51.40;;;;;;5056005;28;20489;-84
2022/04/12 06:32:36;;;;;;;1.57;1.47;;;22.70;51.40;;;;;;5057441;28;20815;-96
2022/04/12 06:35:06;;;;;;;1.93;1.30;;;22.70;51.20;;;;;;5058276;28;20960;-93
2022/04/12 06:37:34;;;;;;;1.50;1.40;;;22.70;51.30;;;;;;5058019;28;20444;-94
2022/04/12 06:40:01;;;;;;;2.43;1.30;;;22.70;51.30;;;;;;5058544;28;20449;-94
2022/04/12 06:42:28;;;;;;;1.60;1.50;;;22.60;51.20;;;;;;5057799;28;20446;-85
2022/04/12 06:44:55;;;;;;;2.93;1.70;;;22.60;51.30;;;;;;5058241;28;20445;-94
2022/04/12 06:47:22;;;;;;;1.37;1.00;;;22.80;51.50;;;;;;5054457;28;20465;-85
2022/04/12 06:49:50;;;;;;;1.37;1.23;;;22.70;51.40;;;;;;5042325;28;20486;-83
2022/04/12 06:52:19;;;;;;;1.40;1.23;;;22.80;51.40;;;;;;5036540;28;20438;-82
2022/04/12 06:54:46;;;;;;;1.57;1.43;;;22.70;51.30;;;;;;5036439;28;20438;-83
2022/04/12 06:57:13;;;;;;;1.57;1.00;;;22.70;51.30;;;;;;5036501;28;20453;-83
2022/04/12 06:59:40;;;;;;;1.43;1.33;;;22.70;51.30;;;;;;5036656;28;20450;-86
2022/04/12 07:02:07;;;;;;;3.10;1.40;;;22.80;51.40;;;;;;5040471;28;20987;-88
2022/04/12 07:04:34;;;;;;;1.40;1.30;;;22.70;51.20;;;;;;5048125;28;20461;-85
2022/04/12 07:07:10;;;;;;;1.47;1.37;;;22.70;51.20;;;;;;5056597;28;20445;-89
2022/04/12 07:09:38;;;;;;;1.40;1.30;;;22.70;51.20;;;;;;5056458;28;20481;-83
2022/04/12 07:12:07;;;;;;;1.73;1.10;;;22.70;51.10;;;;;;5055581;28;20456;-84
2022/04/12 07:14:34;;;;;;;1.60;1.20;;;22.70;51.00;;;;;;5056803;28;20507;-83
2022/04/12 07:17:00;;;;;;;1.87;1.57;;;22.70;51.10;;;;;;5056538;28;20449;-83
2022/04/12 07:19:27;;;;;;;2.40;1.50;;;22.70;51.00;;;;;;5056372;28;20449;-82
2022/04/12 07:21:54;;;;;;;2.50;1.33;;;22.70;50.20;;;;;;5056049;28;20437;-82
2022/04/12 07:24:21;;;;;;;1.60;1.50;;;22.70;49.70;;;;;;5058415;28;20483;-85
2022/04/12 07:26:49;;;;;;;1.50;1.20;;;22.70;49.70;;;;;;5056734;28;20434;-81
2022/04/12 07:29:16;;;;;;;2.40;1.50;;;22.70;49.70;;;;;;5038555;28;20895;-84
2022/04/12 07:31:44;;;;;;;1.73;1.30;;;22.70;49.90;;;;;;5056556;28;20449;-83
2022/04/12 07:34:11;;;;;;;4.77;1.60;;;22.70;49.90;;;;;;5055537;28;20445;-83
2022/04/12 07:36:41;;;;;;;1.30;1.10;;;22.70;50.10;;;;;;5056129;28;20449;-93
2022/04/12 07:39:07;;;;;;;1.50;1.40;;;22.70;50.20;;;;;;5056311;28;20468;-94
2022/04/12 07:41:34;;;;;;;1.90;1.10;;;22.70;50.40;;;;;;5055642;28;20516;-83
2022/04/12 07:44:02;;;;;;;2.30;1.03;;;22.70;50.40;;;;;;5055682;28;20454;-83
2022/04/12 07:46:29;;;;;;;1.30;1.20;;;22.80;50.50;;;;;;5055741;28;20457;-83
2022/04/12 07:48:56;;;;;;;1.20;1.00;;;22.80;50.50;;;;;;5055232;28;20493;-84
2022/04/12 07:51:23;;;;;;;1.40;1.10;;;22.80;50.50;;;;;;5037655;28;20967;-84
2022/04/12 07:53:50;;;;;;;1.40;1.30;;;22.80;50.50;;;;;;5037555;28;20504;-84
2022/04/12 07:56:17;;;;;;;0.97;0.83;;;22.80;50.60;;;;;;5055362;28;20457;-83
2022/04/12 07:58:44;;;;;;;1.47;1.10;;;22.80;50.60;;;;;;5055198;28;20449;-84
2022/04/12 08:01:13;;;;;;;2.30;1.00;;;22.90;50.70;;;;;;5055357;28;20959;-83
2022/04/12 08:03:40;;;;;;;1.17;1.07;;;22.90;50.70;;;;;;5037939;28;20445;-83
2022/04/12 08:06:07;;;;;;;5.20;2.33;;;22.90;50.70;;;;;;5055816;28;20441;-83
2022/04/12 08:08:34;;;;;;;1.67;1.10;;;22.90;50.80;;;;;;5055756;28;20441;-94
2022/04/12 08:11:01;;;;;;;1.70;1.20;;;22.90;50.80;;;;;;5055477;28;20446;-84
2022/04/12 08:13:27;;;;;;;1.70;1.00;;;22.90;50.80;;;;;;5037769;28;20442;-83
2022/04/12 08:15:54;;;;;;;1.20;1.10;;;22.90;50.90;;;;;;5055489;28;20453;-94
2022/04/12 08:18:22;;;;;;;1.50;1.20;;;23.00;51.00;;;;;;5055668;28;20437;-84
2022/04/12 08:20:50;;;;;;;1.20;1.00;;;23.00;51.10;;;;;;5055721;28;20473;-83
2022/04/12 08:23:17;;;;;;;1.10;1.00;;;23.00;51.60;;;;;;5037773;28;20493;-83
2022/04/12 08:25:44;;;;;;;1.30;1.20;;;23.00;51.10;;;;;;5055077;28;20482;-84
2022/04/12 08:28:10;;;;;;;1.93;0.97;;;23.00;51.10;;;;;;5037704;28;20492;-84
2022/04/12 08:30:37;;;;;;;1.40;1.20;;;23.00;51.10;;;;;;5055373;28;20481;-84
2022/04/12 08:33:04;;;;;;;1.30;1.07;;;23.10;51.20;;;;;;5037658;28;20440;-84
2022/04/12 08:35:33;;;;;;;1.33;1.00;;;23.20;51.30;;;;;;5055082;28;20438;-83
2022/04/12 08:37:59;;;;;;;1.00;0.90;;;23.10;51.30;;;;;;5055091;28;20450;-86
2022/04/12 08:40:26;;;;;;;1.60;1.50;;;23.10;51.30;;;;;;5037391;28;20959;-84
2022/04/12 08:42:54;;;;;;;1.10;1.00;;;23.10;51.90;;;;;;5055233;28;20438;-92
2022/04/12 08:45:21;;;;;;;1.13;1.03;;;23.20;51.40;;;;;;5055433;28;20434;-84
2022/04/12 08:47:51;;;;;;;1.47;1.33;;;23.20;51.40;;;;;;5036873;28;20495;-94
2022/04/12 08:50:19;;;;;;;1.13;1.03;;;23.20;51.40;;;;;;5054946;28;20843;-84
2022/04/12 08:52:48;;;;;;;1.10;1.00;;;23.30;51.50;;;;;;5035881;28;20461;-84
2022/04/12 08:55:15;;;;;;;1.37;1.13;;;23.30;51.50;;;;;;5054980;28;20463;-93
2022/04/12 08:57:41;;;;;;;1.30;0.90;;;23.30;51.50;;;;;;5054708;28;20448;-84
2022/04/12 09:00:09;;;;;;;1.60;1.00;;;23.30;51.50;;;;;;5054856;28;20438;-83
2022/04/12 09:02:36;;;;;;;1.00;0.90;;;23.40;51.60;;;;;;5054406;28;20789;-83
2022/04/12 09:05:05;;;;;;;1.20;1.00;;;23.40;51.60;;;;;;5054568;28;20434;-84
2022/04/12 09:07:32;;;;;;;1.20;1.10;;;23.40;51.70;;;;;;5037193;28;20449;-83
2022/04/12 09:10:08;;;;;;;1.20;1.10;;;23.40;51.70;;;;;;5054527;28;20496;-92
2022/04/12 09:12:35;;;;;;;3.10;1.37;;;23.50;51.80;;;;;;5054552;28;20449;-84
2022/04/12 09:15:09;;;;;;;1.50;1.20;;;23.50;51.80;;;;;;5054355;28;20454;-84
2022/04/12 09:17:39;;;;;;;1.10;0.93;;;23.60;51.80;;;;;;5054362;28;20465;-83
2022/04/12 09:20:12;;;;;;;1.10;1.00;;;23.60;51.80;;;;;;5054136;28;20469;-83
2022/04/12 09:22:39;;;;;;;1.40;0.83;;;23.60;51.80;;;;;;5054168;28;20438;-84
2022/04/12 09:25:10;;;;;;;1.00;0.90;;;23.60;51.80;;;;;;5053874;28;20496;-84
2022/04/12 09:27:38;;;;;;;1.00;0.90;;;23.70;51.90;;;;;;5054439;28;20437;-84
2022/04/12 09:30:06;;;;;;;1.40;0.90;;;23.70;51.80;;;;;;5054380;28;20485;-83
2022/04/12 09:32:38;;;;;;;1.00;0.90;;;23.70;51.90;;;;;;5054256;28;20445;-84
2022/04/12 09:35:06;;;;;;;1.23;1.13;;;23.70;51.80;;;;;;5053937;28;20449;-83
2022/04/12 09:37:34;;;;;;;1.00;0.90;;;23.80;52.00;;;;;;5053873;28;20908;-83
2022/04/12 09:40:11;;;;;;;1.40;1.30;;;23.80;52.00;;;;;;5054269;28;20438;-85
2022/04/12 09:42:40;;;;;;;0.97;0.80;;;23.80;52.00;;;;;;5054096;28;20515;-83
2022/04/12 09:45:09;;;;;;;1.67;0.97;;;23.80;52.00;;;;;;5053986;28;20441;-85
2022/04/12 09:47:35;;;;;;;1.43;0.80;;;23.90;52.00;;;;;;5053918;28;20446;-83
2022/04/12 09:50:03;;;;;;;1.00;0.90;;;23.90;52.00;;;;;;5053586;28;20486;-83
2022/04/12 09:52:30;;;;;;;1.00;0.90;;;23.90;52.00;;;;;;5053808;28;20935;-83
2022/04/12 09:54:57;;;;;;;1.60;1.00;;;24.00;52.10;;;;;;5053701;28;20803;-89
2022/04/12 09:57:26;;;;;;;1.10;0.90;;;24.00;52.10;;;;;;5054013;28;20521;-83
2022/04/12 09:59:56;;;;;;;1.10;1.00;;;24.00;52.10;;;;;;5053857;28;20449;-83
2022/04/12 10:02:24;;;;;;;1.20;1.00;;;24.10;52.10;;;;;;5053994;28;20923;-93
2022/04/12 10:04:52;;;;;;;1.10;1.00;;;24.10;52.20;;;;;;5053297;28;20851;-84
2022/04/12 10:07:21;;;;;;;1.13;1.00;;;24.10;52.20;;;;;;5053467;28;20441;-84
2022/04/12 10:09:49;;;;;;;1.00;0.83;;;24.10;52.20;;;;;;5053451;28;20527;-84
2022/04/12 10:12:17;;;;;;;1.00;0.90;;;24.10;52.10;;;;;;5053418;28;20441;-83
2022/04/12 10:14:45;;;;;;;1.90;1.10;;;24.30;52.30;;;;;;5053822;28;20477;-84
2022/04/12 10:17:13;;;;;;;1.20;0.90;;;24.20;52.30;;;;;;5053639;28;20453;-85
2022/04/12 10:19:41;;;;;;;1.10;0.80;;;24.20;52.30;;;;;;5053380;28;21014;-84
2022/04/12 10:22:08;;;;;;;1.10;1.00;;;24.20;52.30;;;;;;5053251;28;20445;-84
2022/04/12 10:24:36;;;;;;;1.10;0.90;;;24.20;52.30;;;;;;5053327;28;20478;-92
2022/04/12 10:27:06;;;;;;;1.10;0.97;;;24.30;52.30;;;;;;5053614;28;20458;-84
2022/04/12 10:29:32;;;;;;;1.00;0.80;;;24.30;52.40;;;;;;5053561;28;20484;-90
2022/04/12 10:32:02;;;;;;;1.00;0.90;;;24.40;52.50;;;;;;5053499;28;20442;-84
2022/04/12 10:34:29;;;;;;;1.00;0.90;;;24.40;52.40;;;;;;5053404;28;20464;-84
2022/04/12 10:37:08;;;;;;;1.00;0.90;;;24.40;52.40;;;;;;5035436;28;20949;-84
2022/04/12 10:39:46;;;;;;;1.00;0.83;;;24.50;52.40;;;;;;5035560;28;20449;-84
2022/04/12 10:42:17;;;;;;;1.00;0.80;;;24.50;52.50;;;;;;5053207;28;20994;-83
2022/04/12 10:44:46;;;;;;;1.10;0.97;;;24.50;52.50;;;;;;5053649;28;20788;-85
2022/04/12 10:47:27;;;;;;;0.90;0.80;;;24.50;52.50;;;;;;5053358;28;20533;-90
2022/04/12 10:49:56;;;;;;;1.10;1.00;;;24.60;52.50;;;;;;5053482;28;20499;-85
2022/04/12 10:52:38;;;;;;;1.00;0.90;;;24.50;52.30;;;;;;5055252;28;20449;-84
2022/04/12 10:55:07;;;;;;;1.10;1.00;;;24.70;52.50;;;;;;5052608;28;20430;-83
2022/04/12 10:57:33;;;;;;;1.03;0.80;;;24.60;52.40;;;;;;5052792;28;20434;-83
2022/04/12 11:00:09;;;;;;;2.03;1.13;;;24.70;52.40;;;;;;5052960;28;20537;-89
2022/04/12 11:02:40;;;;;;;2.20;0.90;;;24.80;52.20;;;;;;5053169;28;20437;-83
2022/04/12 11:05:08;;;;;;;1.20;0.80;;;24.80;52.10;;;;;;5053043;28;20472;-91
2022/04/12 11:07:37;;;;;;;3.03;1.00;;;24.80;52.10;;;;;;5052953;28;20426;-83
2022/04/12 11:10:23;;;;;;;1.07;0.80;;;24.90;52.20;;;;;;5052867;28;20497;-83
2022/04/12 11:12:51;;;;;;;1.30;1.20;;;25.00;52.10;;;;;;5052424;28;20866;-83
2022/04/12 11:15:23;;;;;;;3.83;1.63;;;24.90;52.10;;;;;;5052411;28;20434;-83
2022/04/12 11:18:04;;;;;;;1.20;1.07;;;25.00;52.10;;;;;;5056160;28;20521;-83
2022/04/12 11:20:32;;;;;;;1.40;1.17;;;25.00;52.10;;;;;;5055894;28;20461;-83
2022/04/12 11:23:00;;;;;;;1.17;1.00;;;25.00;52.10;;;;;;5056020;28;20446;-83
2022/04/12 11:25:27;;;;;;;1.10;1.00;;;25.00;52.00;;;;;;5055944;28;20871;-84
2022/04/12 11:27:57;;;;;;;1.30;1.00;;;25.00;52.00;;;;;;5056936;28;20487;-84
2022/04/12 11:30:25;;;;;;;1.10;1.00;;;25.10;52.00;;;;;;5056149;28;20485;-83
2022/04/12 11:32:56;;;;;;;1.00;0.90;;;25.10;52.00;;;;;;5038288;28;20446;-83
2022/04/12 11:35:24;;;;;;;1.33;1.00;;;25.10;52.00;;;;;;5056485;28;20430;-83
2022/04/12 11:37:52;;;;;;;1.40;0.90;;;25.10;52.00;;;;;;5055891;28;20795;-82
2022/04/12 11:40:18;;;;;;;0.93;0.80;;;25.10;51.80;;;;;;5056487;28;20477;-84
2022/04/12 11:42:46;;;;;;;1.10;0.80;;;25.20;52.10;;;;;;5056093;28;20445;-86
2022/04/12 11:45:12;;;;;;;1.00;0.83;;;25.20;52.10;;;;;;5055704;28;20438;-84
2022/04/12 11:47:43;;;;;;;0.90;0.80;;;25.20;52.10;;;;;;5055964;28;20802;-89
2022/04/12 11:50:28;;;;;;;1.00;0.90;;;25.20;52.10;;;;;;5055938;28;20511;-89
2022/04/12 11:52:55;;;;;;;1.00;0.90;;;25.20;52.10;;;;;;5053048;28;20547;-84
2022/04/12 11:55:21;;;;;;;1.37;1.20;;;25.20;52.20;;;;;;5055752;28;20438;-84
2022/04/12 11:57:50;;;;;;;1.40;1.00;;;25.20;52.20;;;;;;5055678;28;20441;-83
2022/04/12 12:00:17;;;;;;;1.00;0.87;;;25.20;52.30;;;;;;5055677;28;20444;-84
2022/04/12 12:02:44;;;;;;;1.30;0.80;;;25.20;52.20;;;;;;5055636;28;20438;-83
2022/04/12 12:05:13;;;;;;;1.20;1.10;;;25.20;52.30;;;;;;5055488;28;20541;-83
2022/04/12 12:07:41;;;;;;;1.00;0.87;;;25.20;52.30;;;;;;5055301;28;20444;-83
2022/04/12 12:10:11;;;;;;;1.63;1.00;;;25.10;52.30;;;;;;5054848;28;20476;-90
2022/04/12 12:12:39;;;;;;;1.07;0.97;;;25.20;52.20;;;;;;5055514;28;20472;-84
2022/04/12 12:15:21;;;;;;;1.30;1.00;;;25.20;52.10;;;;;;5055444;28;20430;-88
2022/04/12 12:17:49;;;;;;;1.10;1.00;;;25.20;52.00;;;;;;5043674;28;20433;-87
2022/04/12 12:20:18;;;;;;;1.13;0.97;;;25.10;51.90;;;;;;5058042;28;20508;-83
2022/04/12 12:22:47;;;;;;;2.30;1.43;;;25.10;51.50;;;;;;5055709;28;20488;-95
2022/04/12 12:25:19;;;;;;;1.30;1.00;;;25.00;49.90;;;;;;5068511;28;20469;-92
2022/04/12 12:27:50;;;;;;;1.20;1.00;;;25.00;49.40;;;;;;5075623;28;20439;-84
2022/04/12 12:30:19;;;;;;;1.00;0.90;;;25.00;49.20;;;;;;5075413;28;20567;-83
2022/04/12 12:32:47;;;;;;;2.20;1.13;;;24.90;49.20;;;;;;5076699;28;20468;-84
2022/04/12 12:35:15;;;;;;;1.57;1.10;;;24.80;49.30;;;;;;5075533;28;20503;-94
2022/04/12 12:37:43;;;;;;;1.17;0.90;;;24.70;49.30;;;;;;5076299;28;20439;-86
2022/04/12 12:40:20;;;;;;;2.10;1.13;;;24.70;49.30;;;;;;5075525;28;20441;-95
2022/04/12 12:42:48;;;;;;;1.47;1.17;;;24.70;49.30;;;;;;5075508;28;20444;-84
2022/04/12 12:45:16;;;;;;;1.17;1.07;;;24.50;49.40;;;;;;5075055;28;20491;-94
2022/04/12 12:47:45;;;;;;;1.20;1.00;;;24.60;49.40;;;;;;5075105;28;20449;-92
2022/04/12 12:50:14;;;;;;;1.50;1.10;;;24.50;49.40;;;;;;5074562;28;20921;-88
2022/04/12 12:52:43;;;;;;;2.03;0.97;;;24.50;49.50;;;;;;5075208;28;20455;-84
2022/04/12 12:55:15;;;;;;;3.07;1.40;;;24.40;49.50;;;;;;5075286;28;20445;-95